Time;durP1;ratioP1;P1;durP2;ratioP2;P2;SDS_P1;SDS_P2;PMS_P1;PMS_P2;Temp;Humidity;BMP_temperature;BMP_pressure;BME280_temperature;BME280_humidity;BME280_pressure;Samples;Min_cycle;Max_cycle;Signal;HPM_P1;HPM_P2
2023/08/29 00:00:09;;;;;;;;;2.33;1.67;;;;;16.02;74.12;101308.16;5047338;28;8948;-67
2023/08/29 00:02:41;;;;;;;;;1.00;1.00;;;;;16.01;74.18;101306.50;5034965;28;8964;-68
2023/08/29 00:05:09;;;;;;;;;2.33;1.67;;;;;16.01;73.93;101305.66;5038526;28;9010;-67
2023/08/29 00:07:36;;;;;;;;;4.00;3.00;;;;;15.99;74.12;101307.75;5048871;28;8989;-67
2023/08/29 00:10:04;;;;;;;;;2.00;2.00;;;;;15.98;73.93;101306.09;5040700;28;9006;-66
2023/08/29 00:12:32;;;;;;;;;1.25;1.25;;;;;15.96;74.44;101303.59;5036350;28;9096;-68
2023/08/29 00:14:59;;;;;;;;;3.67;2.67;;;;;15.93;73.97;101304.03;5041589;28;8892;-67
2023/08/29 00:17:26;;;;;;;;;2.67;2.00;;;;;15.91;74.39;101302.56;5047174;28;9228;-67
2023/08/29 00:19:53;;;;;;;;;1.00;1.00;;;;;15.89;74.38;101299.25;5046674;28;9027;-67
2023/08/29 00:22:20;;;;;;;;;2.00;2.00;;;;;15.87;74.09;101302.19;5049842;28;8928;-67
2023/08/29 00:24:52;;;;;;;;;1.00;1.00;;;;;15.86;74.37;101296.97;5050250;28;8933;-67
2023/08/29 00:27:21;;;;;;;;;2.00;2.00;;;;;15.83;74.20;101293.63;5051747;28;8987;-67
2023/08/29 00:29:48;;;;;;;;;1.00;1.00;;;;;15.80;74.20;101299.53;5038224;28;8939;-66
2023/08/29 00:32:14;;;;;;;;;3.00;3.00;;;;;15.80;74.58;101287.84;5049570;28;8911;-67
2023/08/29 00:34:41;;;;;;;;;1.00;1.00;;;;;15.77;74.58;101294.53;5043932;28;8864;-68
2023/08/29 00:37:07;;;;;;;;;1.00;1.00;;;;;15.75;74.55;101287.63;5048418;28;9686;-67
2023/08/29 00:39:34;;;;;;;;;3.00;2.00;;;;;15.75;74.67;101290.34;5038832;28;8995;-67
2023/08/29 00:42:01;;;;;;;;;2.00;2.00;;;;;15.72;74.87;101283.50;5039097;28;9122;-66
2023/08/29 00:44:27;;;;;;;;;3.00;1.00;;;;;15.70;74.59;101285.56;5048484;28;9065;-67
2023/08/29 00:46:54;;;;;;;;;1.33;1.33;;;;;15.71;74.99;101289.94;5041976;28;8996;-67
2023/08/29 00:49:25;;;;;;;;;1.00;1.00;;;;;15.69;74.83;101289.34;5044185;28;8931;-67
2023/08/29 00:51:52;;;;;;;;;1.00;1.00;;;;;15.68;74.58;101276.00;5042455;28;8942;-67
2023/08/29 00:54:20;;;;;;;;;2.00;2.00;;;;;15.66;74.73;101283.53;5042896;28;8937;-67
2023/08/29 00:56:48;;;;;;;;;3.00;1.33;;;;;15.66;74.77;101283.53;5035235;28;9612;-67
2023/08/29 00:59:15;;;;;;;;;1.33;1.33;;;;;15.65;75.14;101284.56;5046570;28;9721;-67
2023/08/29 01:01:45;;;;;;;;;2.00;2.00;;;;;15.63;75.10;101279.31;5046036;28;9020;-68
2023/08/29 01:04:12;;;;;;;;;2.00;1.00;;;;;15.62;75.47;101271.41;5044318;28;8926;-67
2023/08/29 01:06:39;;;;;;;;;2.67;1.00;;;;;15.62;75.03;101277.66;5043785;28;8928;-67
2023/08/29 01:09:06;;;;;;;;;1.00;1.00;;;;;15.60;75.06;101277.06;5040013;28;8933;-67
2023/08/29 01:12:04;;;;;;;;;1.00;1.00;;;;;15.59;75.57;101278.91;5046140;28;8869;-67
2023/08/29 01:15:03;;;;;;;;;3.00;3.00;;;;;15.59;75.30;101273.47;5042699;28;8876;-67
2023/08/29 01:18:00;;;;;;;;;3.33;1.00;;;;;15.55;75.39;101274.13;5026661;28;8922;-67
2023/08/29 01:20:29;;;;;;;;;1.00;1.00;;;;;15.52;75.51;101267.28;5052887;28;9067;-68
2023/08/29 01:23:29;;;;;;;;;3.00;2.00;;;;;15.50;75.36;101263.94;5046080;28;9010;-67
2023/08/29 01:26:12;;;;;;;;;1.00;1.00;;;;;15.47;75.35;101250.78;5042343;28;9009;-67
2023/08/29 01:28:45;;;;;;;;;1.00;1.00;;;;;15.45;75.05;101258.34;5043036;28;9182;-67
2023/08/29 01:31:12;;;;;;;;;2.00;2.00;;;;;15.43;75.19;101256.88;5038757;28;8919;-67
2023/08/29 01:33:42;;;;;;;;;2.00;2.00;;;;;15.42;75.45;101255.22;5041614;28;8940;-67
2023/08/29 01:36:09;;;;;;;;;3.00;3.00;;;;;15.39;75.31;101255.66;5044761;28;9003;-68
2023/08/29 01:38:35;;;;;;;;;2.00;2.00;;;;;15.39;75.35;101252.94;5046704;28;9847;-67
2023/08/29 01:41:02;;;;;;;;;1.00;1.00;;;;;15.37;75.28;101255.03;5044122;28;9168;-67
2023/08/29 01:43:28;;;;;;;;;3.67;2.00;;;;;15.35;75.70;101255.25;5044648;28;9142;-68
2023/08/29 01:45:56;;;;;;;;;1.67;1.67;;;;;15.33;75.41;101262.78;5048292;28;9091;-67
2023/08/29 01:48:23;;;;;;;;;2.00;2.00;;;;;15.31;75.55;101260.28;5034050;28;8950;-67
2023/08/29 01:50:52;;;;;;;;;1.00;1.00;;;;;15.31;75.70;101267.56;5046759;28;9708;-67
2023/08/29 01:53:19;;;;;;;;;1.75;1.50;;;;;15.28;75.47;101268.03;5039542;28;8971;-67
2023/08/29 01:55:47;;;;;;;;;2.67;2.00;;;;;15.29;75.81;101275.09;5022119;28;8850;-67
2023/08/29 01:58:16;;;;;;;;;3.00;2.00;;;;;15.31;75.64;101273.00;5043119;28;9035;-67
2023/08/29 02:00:43;;;;;;;;;1.00;1.00;;;;;15.31;75.52;101273.00;5040938;28;9067;-67
2023/08/29 02:03:10;;;;;;;;;1.00;1.00;;;;;15.29;75.47;101272.38;5027600;28;9094;-66
2023/08/29 02:05:36;;;;;;;;;3.00;1.00;;;;;15.29;75.51;101267.78;5043820;28;9092;-67
2023/08/29 02:08:03;;;;;;;;;1.00;1.00;;;;;15.28;75.69;101268.84;5042780;28;9623;-66
2023/08/29 02:10:30;;;;;;;;;3.00;3.00;;;;;15.26;75.32;101272.81;5057303;28;8953;-67
2023/08/29 02:12:57;;;;;;;;;3.00;2.00;;;;;15.24;75.52;101274.91;5052391;28;8906;-67
2023/08/29 02:15:23;;;;;;;;;1.00;1.00;;;;;15.22;75.83;101266.97;5042379;28;9019;-68
2023/08/29 02:17:51;;;;;;;;;3.00;1.33;;;;;15.23;75.57;101268.66;5036252;28;9005;-67
2023/08/29 02:20:17;;;;;;;;;2.00;2.00;;;;;15.20;75.47;101260.13;5044076;28;9242;-67
2023/08/29 02:22:44;;;;;;;;;2.67;2.67;;;;;15.19;75.71;101266.56;5049419;28;9178;-67
2023/08/29 02:25:11;;;;;;;;;1.67;1.00;;;;;15.18;75.67;101256.78;5052561;28;9046;-67
2023/08/29 02:27:37;;;;;;;;;2.00;2.00;;;;;15.17;75.90;101258.66;5051451;28;9134;-66
2023/08/29 02:30:05;;;;;;;;;1.00;1.00;;;;;15.16;75.95;101257.00;5046911;28;9177;-68
2023/08/29 02:32:34;;;;;;;;;2.00;2.00;;;;;15.13;75.84;101254.72;5046485;28;8912;-67
2023/08/29 02:35:01;;;;;;;;;3.33;2.00;;;;;15.12;75.93;101244.94;5051497;28;9187;-67
2023/08/29 02:37:29;;;;;;;;;3.33;2.33;;;;;15.09;75.62;101248.88;5042300;28;9150;-68
2023/08/29 02:39:56;;;;;;;;;1.00;1.00;;;;;15.07;75.64;101253.72;5040362;28;9003;-67
2023/08/29 02:42:23;;;;;;;;;1.00;1.00;;;;;15.08;75.74;101255.38;5051296;28;9006;-68
2023/08/29 02:44:49;;;;;;;;;2.00;2.00;;;;;15.06;76.06;101262.03;5044428;28;9083;-68
2023/08/29 02:47:16;;;;;;;;;3.67;3.00;;;;;15.05;75.87;101261.19;5052132;28;8909;-68
2023/08/29 02:49:42;;;;;;;;;1.00;1.00;;;;;15.02;75.84;101261.63;5043343;28;9244;-67
2023/08/29 02:52:08;;;;;;;;;2.00;2.00;;;;;14.99;75.54;101256.66;5038914;28;9238;-67
2023/08/29 02:54:35;;;;;;;;;1.67;1.67;;;;;14.99;75.70;101261.22;5047561;28;9075;-66
2023/08/29 02:57:01;;;;;;;;;2.00;2.00;;;;;15.00;75.86;101257.47;5050401;28;9065;-67
2023/08/29 02:59:28;;;;;;;;;1.33;1.33;;;;;15.00;76.09;101271.03;5043699;28;9083;-67
2023/08/29 03:01:55;;;;;;;;;2.00;1.33;;;;;14.99;75.62;101256.66;5050588;28;9169;-67
2023/08/29 03:04:21;;;;;;;;;1.67;1.67;;;;;15.00;75.94;101262.91;5040860;28;9097;-68
2023/08/29 03:06:51;;;;;;;;;2.67;1.00;;;;;14.99;75.99;101256.66;5051729;28;9130;-67
2023/08/29 03:09:17;;;;;;;;;2.00;2.00;;;;;14.99;75.93;101263.94;5042670;28;9005;-67
2023/08/29 03:11:44;;;;;;;;;1.00;1.00;;;;;14.97;75.69;101268.75;5050043;28;8990;-67
2023/08/29 03:14:10;;;;;;;;;1.67;1.67;;;;;14.94;75.55;101269.16;5047276;28;9810;-67
2023/08/29 03:16:37;;;;;;;;;3.00;2.00;;;;;14.93;76.01;101281.06;5043450;28;9098;-67
2023/08/29 03:19:04;;;;;;;;;2.00;2.00;;;;;14.92;75.93;101279.41;5039244;28;9106;-66
2023/08/29 03:21:31;;;;;;;;;3.00;3.00;;;;;14.88;75.77;101286.28;5042399;28;8988;-66
2023/08/29 03:23:57;;;;;;;;;2.33;2.33;;;;;14.86;75.65;101280.22;5049363;28;9080;-68
2023/08/29 03:26:24;;;;;;;;;3.33;3.00;;;;;14.84;75.67;101288.59;5042735;28;9013;-67
2023/08/29 03:28:50;;;;;;;;;2.00;2.00;;;;;14.81;75.95;101286.28;5042702;28;9015;-67
2023/08/29 03:31:17;;;;;;;;;2.00;2.00;;;;;14.79;76.00;101285.69;5046123;28;9018;-67
2023/08/29 03:33:44;;;;;;;;;1.33;1.00;;;;;14.79;76.05;101289.22;5042670;28;9131;-67
2023/08/29 03:36:11;;;;;;;;;3.33;3.00;;;;;14.77;75.96;101285.88;5044872;28;8943;-66
2023/08/29 03:38:40;;;;;;;;;1.67;1.67;;;;;14.78;76.07;101286.69;5043657;28;9078;-68
2023/08/29 03:41:07;;;;;;;;;3.00;2.00;;;;;14.77;76.12;101299.44;5047897;28;9073;-67
2023/08/29 03:43:35;;;;;;;;;2.33;2.00;;;;;14.78;76.14;101290.25;5043928;28;9074;-66
2023/08/29 03:46:03;;;;;;;;;2.33;2.33;;;;;14.77;76.37;101291.28;5043235;28;9070;-67
2023/08/29 03:48:30;;;;;;;;;1.67;1.33;;;;;14.79;76.21;101289.22;5047309;28;9870;-68
2023/08/29 03:50:59;;;;;;;;;3.00;3.00;;;;;14.80;76.43;101290.06;5033023;28;8979;-67
2023/08/29 03:53:25;;;;;;;;;2.67;2.67;;;;;14.81;76.62;101297.97;5049554;28;9172;-67
2023/08/29 03:55:52;;;;;;;;;2.00;2.00;;;;;14.84;76.70;101296.72;5033266;28;9104;-67
2023/08/29 03:58:18;;;;;;;;;2.00;2.00;;;;;14.87;76.68;101295.44;5046428;28;9170;-68
2023/08/29 04:00:45;;;;;;;;;3.33;3.00;;;;;14.88;76.72;101289.81;5033930;28;9278;-68
2023/08/29 04:03:11;;;;;;;;;2.00;2.00;;;;;14.88;76.71;101281.69;5048457;28;9240;-68
2023/08/29 04:05:38;;;;;;;;;2.67;2.67;;;;;14.90;76.67;101289.59;5039346;28;9064;-68
2023/08/29 04:08:05;;;;;;;;;2.67;2.67;;;;;14.92;76.67;101276.69;5031641;28;9268;-68
2023/08/29 04:10:39;;;;;;;;;2.00;2.00;;;;;14.94;76.89;101272.69;5042217;28;9288;-68
2023/08/29 04:13:07;;;;;;;;;1.00;1.00;;;;;14.97;77.15;101272.28;5052056;28;9071;-67
2023/08/29 04:15:34;;;;;;;;;2.00;2.00;;;;;14.98;77.10;101275.81;5046028;28;9053;-68
2023/08/29 04:18:01;;;;;;;;;3.00;3.00;;;;;15.01;77.44;101280.81;5040377;28;9076;-69
2023/08/29 04:20:29;;;;;;;;;2.00;2.00;;;;;15.03;77.07;101273.31;5046117;28;9086;-68
2023/08/29 04:22:57;;;;;;;;;3.00;3.00;;;;;15.05;77.52;101263.91;5048972;28;8991;-68
2023/08/29 04:25:28;;;;;;;;;7.00;2.67;;;;;15.07;77.59;101261.84;5047522;28;9083;-68
2023/08/29 04:27:54;;;;;;;;;3.00;3.00;;;;;15.10;77.48;101263.28;5039669;28;9099;-67
2023/08/29 04:30:21;;;;;;;;;2.00;2.00;;;;;15.10;77.47;101263.28;5048383;28;9173;-68
2023/08/29 04:32:48;;;;;;;;;4.33;4.00;;;;;15.09;77.59;101251.59;5048742;28;9168;-68
2023/08/29 04:35:14;;;;;;;;;3.00;2.00;;;;;15.09;77.44;101253.47;5044251;28;9105;-68
2023/08/29 04:37:44;;;;;;;;;3.00;2.00;;;;;15.09;77.58;101254.31;5038818;28;9165;-68
2023/08/29 04:40:11;;;;;;;;;2.00;2.00;;;;;15.10;77.78;101255.13;5044225;28;9007;-68
2023/08/29 04:42:37;;;;;;;;;2.00;2.00;;;;;15.09;77.87;101257.03;5045991;28;9003;-69
2023/08/29 04:45:04;;;;;;;;;3.00;3.00;;;;;15.08;77.96;101263.50;5062924;22;9169;-69
2023/08/29 04:47:31;;;;;;;;;3.00;3.00;;;;;15.08;77.91;101260.78;5009608;28;9006;-67
2023/08/29 04:50:01;;;;;;;;;1.67;1.67;;;;;15.09;78.22;101259.72;5008974;28;9307;-68
2023/08/29 04:52:28;;;;;;;;;2.67;2.67;;;;;15.08;78.04;101252.66;5007023;28;8921;-69
2023/08/29 04:54:55;;;;;;;;;2.00;2.00;;;;;15.09;78.14;101251.59;5024790;28;9031;-69
2023/08/29 04:57:22;;;;;;;;;1.00;1.00;;;;;15.11;78.04;101242.41;5013416;28;9011;-70
2023/08/29 04:59:48;;;;;;;;;2.33;2.33;;;;;15.10;78.23;101247.00;5008643;28;9010;-68
2023/08/29 05:02:16;;;;;;;;;1.67;1.67;;;;;15.11;78.36;101243.28;5009974;28;9154;-67
2023/08/29 05:04:43;;;;;;;;;2.00;2.00;;;;;15.11;78.17;101235.13;5008798;28;9861;-70
2023/08/29 05:07:10;;;;;;;;;3.00;3.00;;;;;15.11;78.29;101237.84;5003860;28;9119;-68
2023/08/29 05:09:36;;;;;;;;;2.00;2.00;;;;;15.11;78.04;101229.72;5026026;28;9909;-68
2023/08/29 05:12:04;;;;;;;;;2.00;2.00;;;;;15.11;78.14;101226.13;5016297;28;9287;-68
2023/08/29 05:14:30;;;;;;;;;3.00;1.67;;;;;15.09;78.15;101223.66;5012634;28;9091;-71
2023/08/29 05:16:56;;;;;;;;;4.00;2.00;;;;;15.09;78.27;101212.81;5016873;28;9124;-68
2023/08/29 05:19:23;;;;;;;;;2.33;2.00;;;;;15.08;78.33;101217.41;5013932;28;9320;-67
2023/08/29 05:21:50;;;;;;;;;4.00;2.00;;;;;15.08;78.33;101216.56;5010534;28;8996;-68
2023/08/29 05:24:17;;;;;;;;;1.00;1.00;;;;;15.07;78.65;101213.03;5026744;28;9075;-68
2023/08/29 05:26:44;;;;;;;;;3.00;3.00;;;;;15.09;78.61;101210.09;5004489;28;9014;-67
2023/08/29 05:29:11;;;;;;;;;3.00;2.00;;;;;15.09;78.34;101210.09;5008363;28;9865;-68
2023/08/29 05:31:38;;;;;;;;;3.00;3.00;;;;;15.08;78.60;101209.25;5007555;28;9101;-68
2023/08/29 05:34:05;;;;;;;;;3.00;3.00;;;;;15.10;78.66;101217.19;5009650;28;9101;-69
2023/08/29 05:36:31;;;;;;;;;2.00;2.00;;;;;15.13;78.59;101222.19;5010600;28;9008;-68
2023/08/29 05:38:57;;;;;;;;;2.33;2.33;;;;;15.15;78.90;101220.09;5002110;28;9140;-67
2023/08/29 05:41:28;;;;;;;;;3.00;3.00;;;;;15.16;78.61;101218.22;5005186;28;9022;-67
2023/08/29 05:43:54;;;;;;;;;3.33;3.33;;;;;15.19;78.54;101217.75;5004628;28;8996;-67
2023/08/29 05:46:21;;;;;;;;;3.33;3.00;;;;;15.20;78.75;101219.44;5009145;28;8931;-71
2023/08/29 05:48:47;;;;;;;;;2.00;2.00;;;;;15.23;78.54;101219.84;5010357;28;9056;-68
2023/08/29 05:51:14;;;;;;;;;2.67;2.67;;;;;15.27;78.85;101214.81;5005426;28;9168;-68
2023/08/29 05:53:40;;;;;;;;;2.67;2.67;;;;;15.29;78.68;101210.84;5010438;28;9086;-68
2023/08/29 05:56:07;;;;;;;;;2.33;2.00;;;;;15.31;78.70;101203.34;5008452;28;8999;-66
2023/08/29 05:58:33;;;;;;;;;3.00;3.00;;;;;15.33;78.44;101211.25;5009410;28;9735;-67
2023/08/29 06:01:01;;;;;;;;;2.00;1.67;;;;;15.37;78.72;101208.94;5024389;28;9743;-66
2023/08/29 06:03:27;;;;;;;;;4.00;4.00;;;;;15.38;78.70;101202.44;5015132;28;9013;-66
2023/08/29 06:05:54;;;;;;;;;2.00;1.00;;;;;15.40;78.50;101209.34;5006506;28;9066;-67
2023/08/29 06:08:21;;;;;;;;;3.00;2.00;;;;;15.43;78.64;101203.44;5010478;28;8920;-66
2023/08/29 06:10:47;;;;;;;;;2.00;2.00;;;;;15.47;78.80;101203.84;5009760;28;8917;-66
2023/08/29 06:13:14;;;;;;;;;2.67;2.67;;;;;15.50;78.66;101219.69;5005990;28;9165;-68
2023/08/29 06:15:40;;;;;;;;;3.00;3.00;;;;;15.52;78.50;101212.19;5009008;28;9027;-67
2023/08/29 06:18:07;;;;;;;;;1.67;1.67;;;;;15.58;78.84;101214.84;5008796;28;8935;-67
2023/08/29 06:20:34;;;;;;;;;2.33;2.33;;;;;15.63;78.62;101218.78;5009894;28;8950;-68
2023/08/29 06:23:01;;;;;;;;;1.33;1.33;;;;;15.64;78.50;101210.44;5014378;28;8996;-68
2023/08/29 06:25:28;;;;;;;;;3.00;1.25;;;;;15.66;78.50;101208.34;5011844;28;8923;-67
2023/08/29 06:27:55;;;;;;;;;4.75;2.00;;;;;15.69;78.53;101207.94;5017412;28;8839;-67
2023/08/29 06:30:21;;;;;;;;;3.75;3.00;;;;;15.71;78.55;101213.13;5019483;28;8871;-67
2023/08/29 06:32:48;;;;;;;;;1.67;1.67;;;;;15.72;78.43;101210.22;5010561;28;8906;-67
2023/08/29 06:35:14;;;;;;;;;3.00;3.00;;;;;15.73;78.47;101213.75;5013137;28;8917;-68
2023/08/29 06:37:41;;;;;;;;;3.00;3.00;;;;;15.74;78.71;101220.84;5010056;28;9003;-68
2023/08/29 06:40:10;;;;;;;;;2.75;2.50;;;;;15.75;78.70;101217.06;5009585;28;8847;-67
2023/08/29 06:42:37;;;;;;;;;2.25;1.25;;;;;15.76;79.11;101213.31;5007820;28;8944;-67
2023/08/29 06:45:05;;;;;;;;;3.67;3.67;;;;;15.76;79.08;101219.56;5007601;28;8840;-66
2023/08/29 06:47:32;;;;;;;;;4.33;3.00;;;;;15.79;78.93;101221.00;5007694;28;9001;-66
2023/08/29 06:49:59;;;;;;;;;3.00;2.00;;;;;15.77;78.77;101210.38;5008391;28;8940;-68
2023/08/29 06:52:27;;;;;;;;;3.00;2.75;;;;;15.77;79.02;101214.97;5015832;28;9029;-68
2023/08/29 06:54:54;;;;;;;;;1.50;1.50;;;;;15.76;79.18;101206.00;5021918;28;8862;-67
2023/08/29 06:57:20;;;;;;;;;2.25;2.25;;;;;15.79;78.86;101215.56;5013216;28;8843;-67
2023/08/29 06:59:47;;;;;;;;;4.00;2.00;;;;;15.81;78.89;101216.19;5012437;28;8932;-70
2023/08/29 07:02:13;;;;;;;;;2.00;2.00;;;;;15.85;78.89;101219.31;5012114;28;8995;-67
2023/08/29 07:04:39;;;;;;;;;1.75;1.75;;;;;15.88;79.10;101221.56;5020930;28;8828;-66
2023/08/29 07:07:06;;;;;;;;;3.75;2.50;;;;;15.89;79.04;101220.53;5012575;28;8858;-67
2023/08/29 07:09:32;;;;;;;;;1.50;1.50;;;;;15.91;78.84;101219.25;5011571;28;8902;-67
2023/08/29 07:11:59;;;;;;;;;2.75;1.75;;;;;15.93;78.81;101219.88;5023934;28;8879;-67
2023/08/29 07:14:26;;;;;;;;;0.75;0.75;;;;;15.94;79.18;101215.28;5010528;28;8873;-69
2023/08/29 07:16:52;;;;;;;;;2.50;2.50;;;;;15.97;78.94;101212.13;5011398;28;9578;-68
2023/08/29 07:19:35;;;;;;;;;2.50;1.75;;;;;16.03;78.95;101213.94;5009933;28;8858;-67
2023/08/29 07:22:01;;;;;;;;;4.75;4.00;;;;;16.06;79.01;101210.78;5011355;28;8847;-67
2023/08/29 07:24:33;;;;;;;;;1.75;1.25;;;;;16.07;78.52;101221.41;5010778;28;8835;-67
2023/08/29 07:26:59;;;;;;;;;2.00;2.00;;;;;16.06;78.12;101214.31;5002389;28;8893;-68
2023/08/29 07:29:25;;;;;;;;;2.00;0.75;;;;;16.04;78.03;101216.44;5012095;28;8850;-67
2023/08/29 07:31:52;;;;;;;;;1.25;1.25;;;;;16.05;77.81;101206.41;5003469;28;8978;-68
2023/08/29 07:34:18;;;;;;;;;1.00;1.00;;;;;16.07;77.22;101207.84;5013024;28;8823;-68
2023/08/29 07:36:45;;;;;;;;;1.00;0.50;;;;;16.13;77.25;101208.84;5012466;28;8815;-67
2023/08/29 07:39:12;;;;;;;;;2.00;0.00;;;;;16.19;77.09;101207.94;5018656;28;8842;-68
2023/08/29 07:41:38;;;;;;;;;0.00;0.00;;;;;16.26;76.72;101210.63;5003516;28;8856;-68
2023/08/29 07:44:05;;;;;;;;;1.00;1.00;;;;;16.31;76.40;101210.78;5011423;28;8842;-69
2023/08/29 07:46:31;;;;;;;;;1.00;1.00;;;;;16.36;76.68;101210.09;5012707;28;8819;-68
2023/08/29 07:48:58;;;;;;;;;1.75;1.75;;;;;16.38;76.03;101216.97;5017450;28;8839;-68
2023/08/29 07:51:24;;;;;;;;;2.50;2.25;;;;;16.38;76.36;101219.69;5010938;28;8855;-69
2023/08/29 07:53:51;;;;;;;;;2.50;2.00;;;;;16.37;76.26;101211.78;5012246;28;9589;-67
2023/08/29 07:56:17;;;;;;;;;2.25;2.25;;;;;16.34;75.78;101209.50;5012537;28;8847;-68
2023/08/29 07:58:44;;;;;;;;;1.00;1.00;;;;;16.38;76.19;101202.56;5012421;28;8950;-68
2023/08/29 08:01:11;;;;;;;;;1.00;1.00;;;;;16.46;75.92;101200.38;5017933;28;8838;-67
2023/08/29 08:03:38;;;;;;;;;1.25;1.25;;;;;16.49;75.60;101205.38;5011134;28;8961;-68
2023/08/29 08:06:06;;;;;;;;;1.00;1.00;;;;;16.51;75.84;101205.97;5002342;28;8868;-69
2023/08/29 08:08:32;;;;;;;;;1.00;1.00;;;;;16.53;75.82;101203.06;5004068;28;8843;-67
2023/08/29 08:10:59;;;;;;;;;2.00;1.00;;;;;16.52;76.05;101212.25;5012014;28;8834;-67
2023/08/29 08:13:28;;;;;;;;;2.00;2.00;;;;;16.55;75.84;101207.19;5027252;28;8811;-68
2023/08/29 08:15:54;;;;;;;;;1.50;1.50;;;;;16.58;76.12;101205.91;5012262;28;8827;-67
2023/08/29 08:18:21;;;;;;;;;1.50;1.00;;;;;16.59;76.00;101210.28;5011131;28;8913;-67
2023/08/29 08:20:47;;;;;;;;;1.75;1.75;;;;;16.60;76.03;101211.13;5002014;28;8858;-68
2023/08/29 08:23:13;;;;;;;;;3.50;2.00;;;;;16.61;76.18;101207.34;5012022;28;8838;-68
2023/08/29 08:25:40;;;;;;;;;2.50;1.00;;;;;16.61;76.01;101197.31;5026982;28;8843;-68
2023/08/29 08:28:06;;;;;;;;;5.75;2.50;;;;;16.56;76.03;101208.00;5011739;28;8827;-67
2023/08/29 08:30:36;;;;;;;;;7.00;4.00;;;;;16.53;76.26;101203.88;5026788;28;8839;-71
2023/08/29 08:33:05;;;;;;;;;4.00;3.50;;;;;16.54;76.35;101204.72;5010750;28;8838;-66
2023/08/29 08:35:32;;;;;;;;;4.67;4.67;;;;;16.55;76.88;101203.63;5002861;28;8849;-68
2023/08/29 08:38:07;;;;;;;;;2.00;2.00;;;;;16.63;76.62;101195.19;5010679;28;8916;-68
2023/08/29 08:40:36;;;;;;;;;3.50;3.00;;;;;16.67;76.33;101190.97;5017535;28;8825;-68
2023/08/29 08:43:04;;;;;;;;;4.00;4.00;;;;;16.69;76.36;101186.16;5011577;28;8869;-67
2023/08/29 08:45:31;;;;;;;;;2.50;2.50;;;;;16.72;76.34;101177.53;5011467;28;8847;-68
2023/08/29 08:48:00;;;;;;;;;1.75;1.25;;;;;16.79;76.06;101180.19;5010139;28;8847;-68
2023/08/29 08:50:26;;;;;;;;;3.00;1.25;;;;;16.86;76.18;101185.56;5014098;28;8828;-68
2023/08/29 08:52:55;;;;;;;;;2.25;1.50;;;;;16.91;75.73;101175.66;5006373;28;8862;-67
2023/08/29 08:55:21;;;;;;;;;5.00;5.00;;;;;16.89;76.22;101171.50;5009280;28;9578;-70
2023/08/29 08:57:50;;;;;;;;;3.00;2.00;;;;;16.95;75.74;101178.75;5008683;28;8835;-69
2023/08/29 09:00:17;;;;;;;;;3.50;3.50;;;;;16.94;75.54;101182.53;5008197;28;8834;-69
2023/08/29 09:02:44;;;;;;;;;3.50;3.00;;;;;16.98;75.63;101176.41;5009815;28;8861;-67
2023/08/29 09:05:11;;;;;;;;;4.50;3.00;;;;;17.02;75.21;101176.78;5009849;28;8827;-68
2023/08/29 09:07:39;;;;;;;;;4.00;4.00;;;;;17.00;74.95;101174.28;5008459;28;8839;-68
2023/08/29 09:10:15;;;;;;;;;3.75;3.75;;;;;17.05;75.18;101171.72;5015920;28;8881;-68
2023/08/29 09:12:46;;;;;;;;;6.00;5.75;;;;;17.07;74.84;101179.66;5008252;28;8850;-67
2023/08/29 09:15:16;;;;;;;;;5.25;4.00;;;;;17.15;74.63;101173.06;5009175;28;9585;-68
2023/08/29 09:17:47;;;;;;;;;6.00;5.00;;;;;17.23;74.54;101187.19;4999360;28;8838;-68
2023/08/29 09:20:13;;;;;;;;;5.75;5.50;;;;;17.22;74.25;101177.38;5004203;28;8905;-68
2023/08/29 09:22:44;;;;;;;;;3.50;3.50;;;;;17.32;73.80;101168.63;5006836;28;8835;-68
2023/08/29 09:25:11;;;;;;;;;3.00;3.00;;;;;17.36;73.81;101178.00;5005664;28;8845;-68
2023/08/29 09:27:44;;;;;;;;;6.50;6.50;;;;;17.35;73.65;101179.06;5000033;28;8845;-69
2023/08/29 09:30:13;;;;;;;;;5.00;5.00;;;;;17.38;73.00;101180.47;5008204;28;9628;-67
2023/08/29 09:32:51;;;;;;;;;3.00;3.00;;;;;17.44;72.62;101180.38;5009772;28;8823;-67
2023/08/29 09:35:22;;;;;;;;;4.00;4.00;;;;;17.46;72.67;101186.44;5007114;28;8862;-70
2023/08/29 09:37:54;;;;;;;;;2.00;2.00;;;;;17.53;72.45;101179.00;5007746;28;8849;-69
2023/08/29 09:40:22;;;;;;;;;6.00;6.00;;;;;17.55;72.07;101185.06;5007011;28;9786;-68
2023/08/29 09:42:58;;;;;;;;;4.25;4.25;;;;;17.59;72.18;101179.16;5013046;28;8839;-68
2023/08/29 09:45:28;;;;;;;;;2.00;2.00;;;;;17.64;72.19;101179.28;5009036;28;8862;-67
2023/08/29 09:48:00;;;;;;;;;2.25;2.00;;;;;17.66;71.68;101178.00;5005971;28;8839;-67
2023/08/29 09:50:35;;;;;;;;;5.00;3.50;;;;;17.72;71.58;101166.16;5012498;28;8842;-69
2023/08/29 09:53:05;;;;;;;;;6.50;6.50;;;;;17.71;71.02;101167.22;5008567;28;8819;-70
2023/08/29 09:55:36;;;;;;;;;2.75;2.75;;;;;17.75;70.26;101168.44;5001758;28;8827;-70
2023/08/29 09:58:05;;;;;;;;;3.00;3.00;;;;;17.76;70.47;101172.81;5006883;28;8957;-70
2023/08/29 10:00:37;;;;;;;;;5.00;5.00;;;;;17.72;70.21;101177.03;5007479;28;8850;-69
2023/08/29 10:03:08;;;;;;;;;3.00;3.00;;;;;17.76;69.89;101163.81;5023292;28;8846;-69
2023/08/29 10:05:38;;;;;;;;;3.50;3.50;;;;;17.81;70.22;101166.66;5004887;28;9541;-69
2023/08/29 10:08:11;;;;;;;;;3.50;2.75;;;;;17.86;69.54;101153.16;5023529;28;10123;-68
2023/08/29 10:10:42;;;;;;;;;2.75;2.75;;;;;17.89;69.45;101157.31;5007933;28;8843;-68
2023/08/29 10:13:10;;;;;;;;;2.00;2.00;;;;;17.90;68.56;101153.53;5009144;28;8839;-68
2023/08/29 10:15:40;;;;;;;;;1.25;1.25;;;;;17.89;67.91;101166.31;5010646;28;8828;-68
2023/08/29 10:18:07;;;;;;;;;3.50;2.50;;;;;17.90;67.05;101159.81;5008388;28;8901;-68
2023/08/29 10:20:36;;;;;;;;;1.50;1.50;;;;;17.98;66.81;101151.28;5005788;28;8847;-69
2023/08/29 10:23:04;;;;;;;;;1.25;1.25;;;;;18.07;66.35;101145.50;5009926;28;8976;-69
2023/08/29 10:25:31;;;;;;;;;1.00;1.00;;;;;18.16;66.67;101146.81;5005522;28;8835;-68
2023/08/29 10:27:58;;;;;;;;;3.75;3.75;;;;;18.15;65.38;101150.56;5008296;28;8847;-68
2023/08/29 10:30:26;;;;;;;;;2.50;2.50;;;;;18.12;64.75;101146.44;5008786;28;8847;-67
2023/08/29 10:32:53;;;;;;;;;0.00;0.00;;;;;18.18;64.74;101139.22;5013920;28;8831;-67
2023/08/29 10:35:25;;;;;;;;;0.00;0.00;;;;;18.21;64.81;101141.47;5023175;28;8867;-67
2023/08/29 10:37:52;;;;;;;;;1.75;1.75;;;;;18.23;65.21;101134.72;5002687;28;8819;-67
2023/08/29 10:40:20;;;;;;;;;3.00;2.50;;;;;18.24;65.60;101132.84;5012309;28;8863;-69
2023/08/29 10:42:52;;;;;;;;;2.50;2.50;;;;;18.29;65.68;101139.22;5013566;28;8851;-68
2023/08/29 10:45:40;;;;;;;;;1.00;1.00;;;;;18.32;65.63;101124.28;5028165;22;9415;-67
2023/08/29 10:48:07;;;;;;;;;2.00;2.00;;;;;18.27;64.39;101137.78;5033550;28;8841;-66
2023/08/29 10:50:36;;;;;;;;;2.50;2.50;;;;;18.34;64.70;101127.59;5032888;28;8855;-68
2023/08/29 10:53:04;;;;;;;;;2.25;2.25;;;;;18.46;64.66;101128.41;5048169;28;8852;-67
2023/08/29 10:55:41;;;;;;;;;2.00;2.00;;;;;18.53;64.06;101125.56;5033002;28;8927;-67
2023/08/29 10:58:40;;;;;;;;;1.00;1.00;;;;;18.61;62.44;101124.38;5033400;28;8889;-67
2023/08/29 11:01:27;;;;;;;;;0.00;0.00;;;;;18.69;61.30;101126.72;5032260;28;8908;-67
2023/08/29 11:03:55;;;;;;;;;1.00;1.00;;;;;18.76;60.58;101122.81;5028222;28;8833;-67
2023/08/29 11:06:24;;;;;;;;;1.75;1.75;;;;;18.88;60.60;101127.38;5031719;28;8894;-68
2023/08/29 11:09:20;;;;;;;;;2.50;2.50;;;;;18.95;60.73;101119.88;5030993;28;8847;-68
2023/08/29 11:12:20;;;;;;;;;1.00;1.00;;;;;18.92;60.30;101118.50;5024699;28;8949;-67
2023/08/29 11:14:55;;;;;;;;;1.50;1.50;;;;;18.86;60.37;101107.72;5012152;28;8864;-67
2023/08/29 11:17:24;;;;;;;;;0.25;0.25;;;;;18.77;59.85;101112.72;5020690;28;9575;-67
2023/08/29 11:19:56;;;;;;;;;1.00;1.00;;;;;18.69;60.05;101111.19;5032494;28;8979;-67
2023/08/29 11:22:25;;;;;;;;;1.00;1.00;;;;;18.64;59.65;101116.53;5016381;28;8835;-68
2023/08/29 11:24:56;;;;;;;;;1.50;1.50;;;;;18.58;59.91;101113.94;5027675;28;8923;-69
2023/08/29 11:27:28;;;;;;;;;0.00;0.00;;;;;18.56;59.92;101111.47;5029381;28;8851;-68
2023/08/29 11:29:55;;;;;;;;;0.00;0.00;;;;;18.54;60.29;101113.56;5031011;28;8855;-67
2023/08/29 11:32:49;;;;;;;;;0.00;0.00;;;;;18.50;60.25;101118.69;5032111;28;8859;-68
2023/08/29 11:35:16;;;;;;;;;0.00;0.00;;;;;18.48;60.29;101109.09;5031931;28;8837;-67
2023/08/29 11:37:42;;;;;;;;;0.50;0.25;;;;;18.45;60.67;101110.41;5032055;28;8817;-68
2023/08/29 11:40:10;;;;;;;;;1.00;1.00;;;;;18.42;60.52;101107.31;5030428;28;8854;-68